sensor_id;sensor_type;location;lat;lon;timestamp;P1;durP1;ratioP1;P2;durP2;ratioP2
9739;SDS011;4909;42.680;26.324;2023-05-10T00:01:16;4.40;;;2.17;;
9739;SDS011;4909;42.680;26.324;2023-05-10T00:03:42;3.60;;;2.07;;
9739;SDS011;4909;42.680;26.324;2023-05-10T00:06:09;5.40;;;2.40;;
9739;SDS011;4909;42.680;26.324;2023-05-10T00:08:36;5.53;;;2.67;;
9739;SDS011;4909;42.680;26.324;2023-05-10T00:11:04;4.43;;;2.00;;
9739;SDS011;4909;42.680;26.324;2023-05-10T00:13:31;4.83;;;2.63;;
9739;SDS011;4909;42.680;26.324;2023-05-10T00:15:58;5.57;;;2.50;;
9739;SDS011;4909;42.680;26.324;2023-05-10T00:18:24;4.03;;;2.13;;
9739;SDS011;4909;42.680;26.324;2023-05-10T00:20:51;5.30;;;2.40;;
9739;SDS011;4909;42.680;26.324;2023-05-10T00:23:18;4.53;;;2.23;;
9739;SDS011;4909;42.680;26.324;2023-05-10T00:25:45;4.03;;;1.87;;
9739;SDS011;4909;42.680;26.324;2023-05-10T00:28:13;3.67;;;1.90;;
9739;SDS011;4909;42.680;26.324;2023-05-10T00:30:40;2.40;;;1.40;;
9739;SDS011;4909;42.680;26.324;2023-05-10T00:33:07;3.90;;;1.87;;
9739;SDS011;4909;42.680;26.324;2023-05-10T00:35:33;3.43;;;1.70;;
9739;SDS011;4909;42.680;26.324;2023-05-10T00:38:01;3.60;;;1.70;;
9739;SDS011;4909;42.680;26.324;2023-05-10T00:40:28;5.23;;;2.13;;
9739;SDS011;4909;42.680;26.324;2023-05-10T00:42:55;4.40;;;1.93;;
9739;SDS011;4909;42.680;26.324;2023-05-10T00:45:23;3.50;;;1.83;;
9739;SDS011;4909;42.680;26.324;2023-05-10T00:47:51;5.43;;;2.00;;
9739;SDS011;4909;42.680;26.324;2023-05-10T00:50:20;2.67;;;1.47;;
9739;SDS011;4909;42.680;26.324;2023-05-10T00:52:47;4.43;;;2.03;;
9739;SDS011;4909;42.680;26.324;2023-05-10T00:55:14;2.30;;;1.47;;
9739;SDS011;4909;42.680;26.324;2023-05-10T00:57:41;4.27;;;1.87;;
9739;SDS011;4909;42.680;26.324;2023-05-10T01:00:09;2.53;;;1.60;;
9739;SDS011;4909;42.680;26.324;2023-05-10T01:02:38;3.57;;;1.67;;
9739;SDS011;4909;42.680;26.324;2023-05-10T01:05:05;3.80;;;1.60;;
9739;SDS011;4909;42.680;26.324;2023-05-10T01:07:32;3.20;;;1.53;;
9739;SDS011;4909;42.680;26.324;2023-05-10T01:09:59;3.30;;;1.50;;
9739;SDS011;4909;42.680;26.324;2023-05-10T01:12:26;3.00;;;1.53;;
9739;SDS011;4909;42.680;26.324;2023-05-10T01:14:53;3.30;;;1.67;;
9739;SDS011;4909;42.680;26.324;2023-05-10T01:17:21;3.93;;;2.13;;
9739;SDS011;4909;42.680;26.324;2023-05-10T01:19:50;3.37;;;1.57;;
9739;SDS011;4909;42.680;26.324;2023-05-10T01:22:30;4.73;;;1.93;;
9739;SDS011;4909;42.680;26.324;2023-05-10T01:25:25;4.33;;;2.07;;
9739;SDS011;4909;42.680;26.324;2023-05-10T01:28:22;3.53;;;1.87;;
9739;SDS011;4909;42.680;26.324;2023-05-10T01:31:18;4.80;;;2.20;;
9739;SDS011;4909;42.680;26.324;2023-05-10T01:33:56;2.67;;;1.50;;
9739;SDS011;4909;42.680;26.324;2023-05-10T01:36:30;3.60;;;1.53;;
9739;SDS011;4909;42.680;26.324;2023-05-10T01:39:01;4.10;;;2.03;;
9739;SDS011;4909;42.680;26.324;2023-05-10T01:41:32;4.70;;;2.27;;
9739;SDS011;4909;42.680;26.324;2023-05-10T01:44:09;4.80;;;2.10;;
9739;SDS011;4909;42.680;26.324;2023-05-10T01:46:40;3.47;;;1.80;;
9739;SDS011;4909;42.680;26.324;2023-05-10T01:49:09;3.07;;;1.73;;
9739;SDS011;4909;42.680;26.324;2023-05-10T01:51:39;2.87;;;1.80;;
9739;SDS011;4909;42.680;26.324;2023-05-10T01:54:11;4.07;;;1.97;;
9739;SDS011;4909;42.680;26.324;2023-05-10T01:56:39;2.53;;;1.47;;
9739;SDS011;4909;42.680;26.324;2023-05-10T01:59:08;4.37;;;2.10;;
9739;SDS011;4909;42.680;26.324;2023-05-10T02:01:39;4.10;;;1.93;;
9739;SDS011;4909;42.680;26.324;2023-05-10T02:04:08;3.23;;;1.70;;
9739;SDS011;4909;42.680;26.324;2023-05-10T02:06:37;2.37;;;1.53;;
9739;SDS011;4909;42.680;26.324;2023-05-10T02:09:05;2.90;;;1.50;;
9739;SDS011;4909;42.680;26.324;2023-05-10T02:11:33;4.37;;;2.10;;
9739;SDS011;4909;42.680;26.324;2023-05-10T02:14:01;3.23;;;1.60;;
9739;SDS011;4909;42.680;26.324;2023-05-10T02:16:29;3.70;;;1.80;;
9739;SDS011;4909;42.680;26.324;2023-05-10T02:18:56;4.43;;;1.97;;
9739;SDS011;4909;42.680;26.324;2023-05-10T02:21:29;4.03;;;1.77;;
9739;SDS011;4909;42.680;26.324;2023-05-10T02:23:57;3.23;;;1.73;;
9739;SDS011;4909;42.680;26.324;2023-05-10T02:26:27;2.50;;;1.50;;
9739;SDS011;4909;42.680;26.324;2023-05-10T02:28:55;4.13;;;1.80;;
9739;SDS011;4909;42.680;26.324;2023-05-10T02:31:24;2.83;;;1.47;;
9739;SDS011;4909;42.680;26.324;2023-05-10T02:33:52;3.57;;;1.67;;
9739;SDS011;4909;42.680;26.324;2023-05-10T02:36:20;6.00;;;2.33;;
9739;SDS011;4909;42.680;26.324;2023-05-10T02:38:50;4.33;;;1.90;;
9739;SDS011;4909;42.680;26.324;2023-05-10T02:41:18;6.90;;;2.47;;
9739;SDS011;4909;42.680;26.324;2023-05-10T02:43:47;3.60;;;1.93;;
9739;SDS011;4909;42.680;26.324;2023-05-10T02:46:17;3.70;;;1.73;;
9739;SDS011;4909;42.680;26.324;2023-05-10T02:48:44;4.00;;;1.80;;
9739;SDS011;4909;42.680;26.324;2023-05-10T02:51:11;3.43;;;1.80;;
9739;SDS011;4909;42.680;26.324;2023-05-10T02:53:43;4.97;;;2.20;;
9739;SDS011;4909;42.680;26.324;2023-05-10T02:56:15;4.10;;;1.70;;
9739;SDS011;4909;42.680;26.324;2023-05-10T02:58:50;3.83;;;1.63;;
9739;SDS011;4909;42.680;26.324;2023-05-10T03:01:17;3.67;;;1.57;;
9739;SDS011;4909;42.680;26.324;2023-05-10T03:03:44;3.00;;;1.53;;
9739;SDS011;4909;42.680;26.324;2023-05-10T03:06:10;3.13;;;1.67;;
9739;SDS011;4909;42.680;26.324;2023-05-10T03:08:37;3.33;;;1.60;;
9739;SDS011;4909;42.680;26.324;2023-05-10T03:11:09;3.97;;;1.70;;
9739;SDS011;4909;42.680;26.324;2023-05-10T03:13:54;3.93;;;1.73;;
9739;SDS011;4909;42.680;26.324;2023-05-10T03:16:29;4.47;;;1.90;;
9739;SDS011;4909;42.680;26.324;2023-05-10T03:19:04;2.83;;;1.37;;
9739;SDS011;4909;42.680;26.324;2023-05-10T03:21:34;3.53;;;1.67;;
9739;SDS011;4909;42.680;26.324;2023-05-10T03:24:08;5.20;;;1.97;;
9739;SDS011;4909;42.680;26.324;2023-05-10T03:26:41;3.57;;;1.50;;
9739;SDS011;4909;42.680;26.324;2023-05-10T03:29:10;2.70;;;1.30;;
9739;SDS011;4909;42.680;26.324;2023-05-10T03:31:39;4.30;;;1.73;;
9739;SDS011;4909;42.680;26.324;2023-05-10T03:34:07;3.13;;;1.43;;
9739;SDS011;4909;42.680;26.324;2023-05-10T03:36:34;4.73;;;1.87;;
9739;SDS011;4909;42.680;26.324;2023-05-10T03:39:01;3.70;;;1.50;;
9739;SDS011;4909;42.680;26.324;2023-05-10T03:41:28;4.93;;;1.83;;
9739;SDS011;4909;42.680;26.324;2023-05-10T03:43:57;4.23;;;1.83;;
9739;SDS011;4909;42.680;26.324;2023-05-10T03:46:23;3.73;;;1.60;;
9739;SDS011;4909;42.680;26.324;2023-05-10T03:48:50;4.97;;;1.80;;
9739;SDS011;4909;42.680;26.324;2023-05-10T03:51:17;4.20;;;1.80;;
9739;SDS011;4909;42.680;26.324;2023-05-10T03:53:44;4.40;;;1.73;;
9739;SDS011;4909;42.680;26.324;2023-05-10T03:56:11;4.00;;;1.73;;
9739;SDS011;4909;42.680;26.324;2023-05-10T03:58:38;5.03;;;2.03;;
9739;SDS011;4909;42.680;26.324;2023-05-10T04:01:06;7.33;;;2.43;;
9739;SDS011;4909;42.680;26.324;2023-05-10T04:03:32;3.40;;;1.63;;
9739;SDS011;4909;42.680;26.324;2023-05-10T04:06:01;5.73;;;2.23;;
9739;SDS011;4909;42.680;26.324;2023-05-10T04:08:28;5.73;;;2.17;;
9739;SDS011;4909;42.680;26.324;2023-05-10T04:11:00;2.90;;;1.53;;
9739;SDS011;4909;42.680;26.324;2023-05-10T04:13:31;2.83;;;1.43;;
9739;SDS011;4909;42.680;26.324;2023-05-10T04:15:58;3.37;;;1.53;;
9739;SDS011;4909;42.680;26.324;2023-05-10T04:18:26;4.07;;;1.70;;
9739;SDS011;4909;42.680;26.324;2023-05-10T04:20:53;3.77;;;1.77;;
9739;SDS011;4909;42.680;26.324;2023-05-10T04:23:20;4.33;;;1.77;;
9739;SDS011;4909;42.680;26.324;2023-05-10T04:25:47;4.37;;;1.90;;
9739;SDS011;4909;42.680;26.324;2023-05-10T04:28:14;5.93;;;2.23;;
9739;SDS011;4909;42.680;26.324;2023-05-10T04:30:40;3.57;;;1.80;;
9739;SDS011;4909;42.680;26.324;2023-05-10T04:33:07;4.40;;;2.10;;
9739;SDS011;4909;42.680;26.324;2023-05-10T04:35:35;6.30;;;2.57;;
9739;SDS011;4909;42.680;26.324;2023-05-10T04:38:02;4.80;;;2.30;;
9739;SDS011;4909;42.680;26.324;2023-05-10T04:40:29;7.10;;;2.77;;
9739;SDS011;4909;42.680;26.324;2023-05-10T04:42:56;5.03;;;2.37;;
9739;SDS011;4909;42.680;26.324;2023-05-10T04:45:22;4.23;;;2.03;;
9739;SDS011;4909;42.680;26.324;2023-05-10T04:47:49;5.50;;;2.57;;
9739;SDS011;4909;42.680;26.324;2023-05-10T04:50:16;3.97;;;2.10;;
9739;SDS011;4909;42.680;26.324;2023-05-10T04:52:44;3.60;;;2.10;;
9739;SDS011;4909;42.680;26.324;2023-05-10T04:55:11;7.00;;;2.73;;
9739;SDS011;4909;42.680;26.324;2023-05-10T04:57:38;5.67;;;2.50;;
9739;SDS011;4909;42.680;26.324;2023-05-10T05:00:06;4.30;;;2.30;;
9739;SDS011;4909;42.680;26.324;2023-05-10T05:02:33;6.53;;;2.90;;
9739;SDS011;4909;42.680;26.324;2023-05-10T05:05:00;8.43;;;3.37;;
9739;SDS011;4909;42.680;26.324;2023-05-10T05:07:27;4.73;;;2.57;;
9739;SDS011;4909;42.680;26.324;2023-05-10T05:09:55;4.20;;;2.50;;
9739;SDS011;4909;42.680;26.324;2023-05-10T05:12:22;4.47;;;2.67;;
9739;SDS011;4909;42.680;26.324;2023-05-10T05:14:48;9.03;;;3.60;;
9739;SDS011;4909;42.680;26.324;2023-05-10T05:17:15;5.43;;;2.83;;
9739;SDS011;4909;42.680;26.324;2023-05-10T05:19:42;11.00;;;4.17;;
9739;SDS011;4909;42.680;26.324;2023-05-10T05:22:09;9.73;;;3.93;;
9739;SDS011;4909;42.680;26.324;2023-05-10T05:24:35;9.73;;;3.87;;
9739;SDS011;4909;42.680;26.324;2023-05-10T05:27:04;6.90;;;3.77;;
9739;SDS011;4909;42.680;26.324;2023-05-10T05:29:32;12.63;;;4.77;;
9739;SDS011;4909;42.680;26.324;2023-05-10T05:31:59;11.87;;;4.37;;
9739;SDS011;4909;42.680;26.324;2023-05-10T05:34:26;8.77;;;4.13;;
9739;SDS011;4909;42.680;26.324;2023-05-10T05:36:52;11.03;;;4.80;;
9739;SDS011;4909;42.680;26.324;2023-05-10T05:39:20;9.23;;;4.20;;
9739;SDS011;4909;42.680;26.324;2023-05-10T05:41:47;11.23;;;4.33;;
9739;SDS011;4909;42.680;26.324;2023-05-10T05:44:15;9.17;;;4.00;;
9739;SDS011;4909;42.680;26.324;2023-05-10T05:46:42;10.00;;;4.20;;
9739;SDS011;4909;42.680;26.324;2023-05-10T05:49:09;11.87;;;4.73;;
9739;SDS011;4909;42.680;26.324;2023-05-10T05:51:36;8.53;;;3.77;;
9739;SDS011;4909;42.680;26.324;2023-05-10T05:54:02;13.33;;;5.10;;
9739;SDS011;4909;42.680;26.324;2023-05-10T05:56:29;10.20;;;4.83;;
9739;SDS011;4909;42.680;26.324;2023-05-10T05:58:56;7.90;;;3.80;;
9739;SDS011;4909;42.680;26.324;2023-05-10T06:01:24;7.30;;;3.63;;
9739;SDS011;4909;42.680;26.324;2023-05-10T06:03:51;7.10;;;3.60;;
9739;SDS011;4909;42.680;26.324;2023-05-10T06:06:18;9.80;;;4.40;;
9739;SDS011;4909;42.680;26.324;2023-05-10T06:08:45;11.87;;;4.43;;
9739;SDS011;4909;42.680;26.324;2023-05-10T06:11:11;8.40;;;4.07;;
9739;SDS011;4909;42.680;26.324;2023-05-10T06:13:38;10.20;;;4.57;;
9739;SDS011;4909;42.680;26.324;2023-05-10T06:16:05;9.10;;;4.53;;
9739;SDS011;4909;42.680;26.324;2023-05-10T06:18:33;11.90;;;5.00;;
9739;SDS011;4909;42.680;26.324;2023-05-10T06:21:01;12.23;;;5.00;;
9739;SDS011;4909;42.680;26.324;2023-05-10T06:23:27;7.20;;;4.00;;
9739;SDS011;4909;42.680;26.324;2023-05-10T06:25:54;10.33;;;4.83;;
9739;SDS011;4909;42.680;26.324;2023-05-10T06:28:21;8.77;;;4.60;;
9739;SDS011;4909;42.680;26.324;2023-05-10T06:30:48;8.30;;;4.37;;
9739;SDS011;4909;42.680;26.324;2023-05-10T06:33:14;9.40;;;4.67;;
9739;SDS011;4909;42.680;26.324;2023-05-10T06:35:43;9.53;;;4.70;;
9739;SDS011;4909;42.680;26.324;2023-05-10T06:38:09;7.20;;;4.30;;
9739;SDS011;4909;42.680;26.324;2023-05-10T06:40:36;10.07;;;4.80;;
9739;SDS011;4909;42.680;26.324;2023-05-10T06:43:07;9.23;;;4.80;;
9739;SDS011;4909;42.680;26.324;2023-05-10T06:45:33;8.80;;;4.67;;
9739;SDS011;4909;42.680;26.324;2023-05-10T06:48:00;11.30;;;5.83;;
9739;SDS011;4909;42.680;26.324;2023-05-10T06:50:27;8.73;;;4.67;;
9739;SDS011;4909;42.680;26.324;2023-05-10T06:52:55;11.40;;;5.40;;
9739;SDS011;4909;42.680;26.324;2023-05-10T06:55:22;9.07;;;4.53;;
9739;SDS011;4909;42.680;26.324;2023-05-10T06:57:48;10.43;;;4.60;;
9739;SDS011;4909;42.680;26.324;2023-05-10T07:00:16;7.10;;;4.23;;
9739;SDS011;4909;42.680;26.324;2023-05-10T07:02:43;8.00;;;4.20;;
9739;SDS011;4909;42.680;26.324;2023-05-10T07:05:10;6.33;;;3.50;;
9739;SDS011;4909;42.680;26.324;2023-05-10T07:07:36;8.53;;;4.63;;
9739;SDS011;4909;42.680;26.324;2023-05-10T07:10:05;8.73;;;4.33;;
9739;SDS011;4909;42.680;26.324;2023-05-10T07:12:33;8.00;;;4.60;;
9739;SDS011;4909;42.680;26.324;2023-05-10T07:14:59;11.50;;;5.10;;
9739;SDS011;4909;42.680;26.324;2023-05-10T07:17:26;10.67;;;4.57;;
9739;SDS011;4909;42.680;26.324;2023-05-10T07:19:53;8.67;;;4.50;;
9739;SDS011;4909;42.680;26.324;2023-05-10T07:22:20;10.60;;;5.37;;
9739;SDS011;4909;42.680;26.324;2023-05-10T07:24:47;12.87;;;5.40;;
9739;SDS011;4909;42.680;26.324;2023-05-10T07:27:15;10.33;;;4.93;;
9739;SDS011;4909;42.680;26.324;2023-05-10T07:29:41;11.37;;;5.20;;
9739;SDS011;4909;42.680;26.324;2023-05-10T07:32:08;8.87;;;4.47;;
9739;SDS011;4909;42.680;26.324;2023-05-10T07:34:35;8.17;;;4.53;;
9739;SDS011;4909;42.680;26.324;2023-05-10T07:37:02;9.90;;;4.97;;
9739;SDS011;4909;42.680;26.324;2023-05-10T07:39:29;8.63;;;4.57;;
9739;SDS011;4909;42.680;26.324;2023-05-10T07:41:56;10.60;;;5.37;;
9739;SDS011;4909;42.680;26.324;2023-05-10T07:44:24;9.97;;;5.37;;
9739;SDS011;4909;42.680;26.324;2023-05-10T07:46:50;7.57;;;4.70;;
9739;SDS011;4909;42.680;26.324;2023-05-10T07:49:17;8.77;;;5.27;;
9739;SDS011;4909;42.680;26.324;2023-05-10T07:51:44;7.40;;;5.07;;
9739;SDS011;4909;42.680;26.324;2023-05-10T07:54:11;9.20;;;5.43;;
9739;SDS011;4909;42.680;26.324;2023-05-10T07:56:38;9.30;;;5.77;;
9739;SDS011;4909;42.680;26.324;2023-05-10T07:59:09;10.17;;;6.10;;
9739;SDS011;4909;42.680;26.324;2023-05-10T08:01:37;9.50;;;6.23;;
9739;SDS011;4909;42.680;26.324;2023-05-10T08:04:04;9.00;;;5.57;;
9739;SDS011;4909;42.680;26.324;2023-05-10T08:06:31;11.80;;;6.27;;
9739;SDS011;4909;42.680;26.324;2023-05-10T08:08:58;7.70;;;5.43;;
9739;SDS011;4909;42.680;26.324;2023-05-10T08:11:24;9.43;;;6.30;;
9739;SDS011;4909;42.680;26.324;2023-05-10T08:13:52;8.13;;;5.90;;
9739;SDS011;4909;42.680;26.324;2023-05-10T08:16:20;10.83;;;6.60;;
9739;SDS011;4909;42.680;26.324;2023-05-10T08:18:48;4.93;;;4.37;;
9739;SDS011;4909;42.680;26.324;2023-05-10T08:21:15;8.27;;;5.53;;
9739;SDS011;4909;42.680;26.324;2023-05-10T08:23:42;9.00;;;5.67;;
9739;SDS011;4909;42.680;26.324;2023-05-10T08:26:09;8.30;;;5.67;;
9739;SDS011;4909;42.680;26.324;2023-05-10T08:28:36;10.20;;;5.70;;
9739;SDS011;4909;42.680;26.324;2023-05-10T08:31:03;8.53;;;5.27;;
9739;SDS011;4909;42.680;26.324;2023-05-10T08:33:30;10.10;;;6.10;;
9739;SDS011;4909;42.680;26.324;2023-05-10T08:35:58;10.87;;;6.00;;
9739;SDS011;4909;42.680;26.324;2023-05-10T08:38:25;11.20;;;6.33;;
9739;SDS011;4909;42.680;26.324;2023-05-10T08:40:53;7.33;;;5.50;;
9739;SDS011;4909;42.680;26.324;2023-05-10T08:43:21;9.43;;;6.10;;
9739;SDS011;4909;42.680;26.324;2023-05-10T08:45:53;10.77;;;6.00;;
9739;SDS011;4909;42.680;26.324;2023-05-10T08:48:21;8.53;;;5.10;;
9739;SDS011;4909;42.680;26.324;2023-05-10T08:50:49;9.03;;;5.67;;
9739;SDS011;4909;42.680;26.324;2023-05-10T08:53:21;10.60;;;5.73;;
9739;SDS011;4909;42.680;26.324;2023-05-10T08:55:50;7.83;;;4.43;;
9739;SDS011;4909;42.680;26.324;2023-05-10T08:58:17;9.27;;;5.03;;
9739;SDS011;4909;42.680;26.324;2023-05-10T09:00:45;6.60;;;4.17;;
9739;SDS011;4909;42.680;26.324;2023-05-10T09:03:14;8.07;;;4.67;;
9739;SDS011;4909;42.680;26.324;2023-05-10T09:05:41;11.07;;;5.63;;
9739;SDS011;4909;42.680;26.324;2023-05-10T09:08:09;8.57;;;4.87;;
9739;SDS011;4909;42.680;26.324;2023-05-10T09:10:39;9.37;;;4.73;;
9739;SDS011;4909;42.680;26.324;2023-05-10T09:13:08;8.70;;;4.60;;
9739;SDS011;4909;42.680;26.324;2023-05-10T09:15:36;10.77;;;5.63;;
9739;SDS011;4909;42.680;26.324;2023-05-10T09:18:03;6.90;;;4.77;;
9739;SDS011;4909;42.680;26.324;2023-05-10T09:20:30;9.37;;;5.07;;
9739;SDS011;4909;42.680;26.324;2023-05-10T09:22:57;10.17;;;5.37;;
9739;SDS011;4909;42.680;26.324;2023-05-10T09:25:24;12.30;;;5.60;;
9739;SDS011;4909;42.680;26.324;2023-05-10T09:27:52;14.17;;;6.10;;
9739;SDS011;4909;42.680;26.324;2023-05-10T09:30:23;8.97;;;5.10;;
9739;SDS011;4909;42.680;26.324;2023-05-10T09:32:51;8.97;;;5.03;;
9739;SDS011;4909;42.680;26.324;2023-05-10T09:35:19;11.40;;;5.37;;
9739;SDS011;4909;42.680;26.324;2023-05-10T09:37:47;11.73;;;5.63;;
9739;SDS011;4909;42.680;26.324;2023-05-10T09:40:16;11.50;;;5.97;;
9739;SDS011;4909;42.680;26.324;2023-05-10T09:42:53;9.37;;;5.40;;
9739;SDS011;4909;42.680;26.324;2023-05-10T09:45:21;12.70;;;6.97;;
9739;SDS011;4909;42.680;26.324;2023-05-10T09:47:48;10.90;;;6.43;;
9739;SDS011;4909;42.680;26.324;2023-05-10T09:50:15;12.33;;;6.00;;
9739;SDS011;4909;42.680;26.324;2023-05-10T09:52:45;10.87;;;5.67;;
9739;SDS011;4909;42.680;26.324;2023-05-10T09:55:13;11.67;;;5.63;;
9739;SDS011;4909;42.680;26.324;2023-05-10T09:57:41;8.03;;;4.80;;
9739;SDS011;4909;42.680;26.324;2023-05-10T10:00:09;9.47;;;5.30;;
9739;SDS011;4909;42.680;26.324;2023-05-10T10:02:41;10.50;;;5.67;;
9739;SDS011;4909;42.680;26.324;2023-05-10T10:05:08;9.57;;;5.30;;
9739;SDS011;4909;42.680;26.324;2023-05-10T10:07:35;12.13;;;6.40;;
9739;SDS011;4909;42.680;26.324;2023-05-10T10:10:02;15.13;;;6.57;;
9739;SDS011;4909;42.680;26.324;2023-05-10T10:12:30;10.63;;;5.57;;
9739;SDS011;4909;42.680;26.324;2023-05-10T10:14:57;7.07;;;4.77;;
9739;SDS011;4909;42.680;26.324;2023-05-10T10:17:27;10.43;;;5.20;;
9739;SDS011;4909;42.680;26.324;2023-05-10T10:19:57;9.17;;;5.03;;
9739;SDS011;4909;42.680;26.324;2023-05-10T10:22:23;10.00;;;5.23;;
9739;SDS011;4909;42.680;26.324;2023-05-10T10:24:50;8.47;;;4.87;;
9739;SDS011;4909;42.680;26.324;2023-05-10T10:27:20;9.43;;;5.33;;
9739;SDS011;4909;42.680;26.324;2023-05-10T10:29:58;8.67;;;5.40;;
9739;SDS011;4909;42.680;26.324;2023-05-10T10:32:33;9.27;;;5.53;;
9739;SDS011;4909;42.680;26.324;2023-05-10T10:35:11;8.90;;;6.17;;
9739;SDS011;4909;42.680;26.324;2023-05-10T10:37:45;10.87;;;6.33;;
9739;SDS011;4909;42.680;26.324;2023-05-10T10:40:23;11.37;;;6.03;;
9739;SDS011;4909;42.680;26.324;2023-05-10T10:42:50;10.77;;;5.63;;
9739;SDS011;4909;42.680;26.324;2023-05-10T10:45:19;10.83;;;6.07;;
9739;SDS011;4909;42.680;26.324;2023-05-10T10:47:48;8.03;;;5.67;;
9739;SDS011;4909;42.680;26.324;2023-05-10T10:50:16;12.87;;;6.50;;
9739;SDS011;4909;42.680;26.324;2023-05-10T10:52:43;11.17;;;5.57;;
9739;SDS011;4909;42.680;26.324;2023-05-10T10:55:11;11.77;;;5.77;;
9739;SDS011;4909;42.680;26.324;2023-05-10T10:57:43;12.17;;;6.13;;
9739;SDS011;4909;42.680;26.324;2023-05-10T11:00:21;10.43;;;6.00;;
9739;SDS011;4909;42.680;26.324;2023-05-10T11:02:51;16.53;;;7.10;;
9739;SDS011;4909;42.680;26.324;2023-05-10T11:08:11;10.37;;;5.33;;
9739;SDS011;4909;42.680;26.324;2023-05-10T11:10:48;11.20;;;6.13;;
9739;SDS011;4909;42.680;26.324;2023-05-10T11:13:17;11.63;;;6.20;;
9739;SDS011;4909;42.680;26.324;2023-05-10T11:15:54;9.83;;;6.00;;
9739;SDS011;4909;42.680;26.324;2023-05-10T11:18:24;11.13;;;6.67;;
9739;SDS011;4909;42.680;26.324;2023-05-10T11:20:52;15.77;;;7.60;;
9739;SDS011;4909;42.680;26.324;2023-05-10T11:23:21;13.10;;;6.93;;
9739;SDS011;4909;42.680;26.324;2023-05-10T11:25:48;11.00;;;6.33;;
9739;SDS011;4909;42.680;26.324;2023-05-10T11:28:16;8.40;;;5.70;;
9739;SDS011;4909;42.680;26.324;2023-05-10T11:30:44;10.23;;;5.87;;
9739;SDS011;4909;42.680;26.324;2023-05-10T11:33:14;13.23;;;6.17;;
9739;SDS011;4909;42.680;26.324;2023-05-10T11:35:44;9.10;;;5.70;;
9739;SDS011;4909;42.680;26.324;2023-05-10T11:38:12;11.97;;;6.00;;
9739;SDS011;4909;42.680;26.324;2023-05-10T11:40:39;9.87;;;6.13;;
9739;SDS011;4909;42.680;26.324;2023-05-10T11:43:08;7.57;;;5.83;;
9739;SDS011;4909;42.680;26.324;2023-05-10T11:45:36;13.37;;;6.87;;
9739;SDS011;4909;42.680;26.324;2023-05-10T11:48:03;12.17;;;6.50;;
9739;SDS011;4909;42.680;26.324;2023-05-10T11:50:31;11.93;;;6.83;;
9739;SDS011;4909;42.680;26.324;2023-05-10T11:52:59;10.00;;;6.07;;
9739;SDS011;4909;42.680;26.324;2023-05-10T11:55:25;10.50;;;6.37;;
9739;SDS011;4909;42.680;26.324;2023-05-10T11:57:53;12.77;;;7.13;;
9739;SDS011;4909;42.680;26.324;2023-05-10T12:00:20;8.73;;;6.27;;
9739;SDS011;4909;42.680;26.324;2023-05-10T12:02:47;11.80;;;7.23;;
9739;SDS011;4909;42.680;26.324;2023-05-10T12:05:15;12.77;;;7.23;;
9739;SDS011;4909;42.680;26.324;2023-05-10T12:07:42;10.63;;;6.23;;
9739;SDS011;4909;42.680;26.324;2023-05-10T12:10:11;8.20;;;6.13;;
9739;SDS011;4909;42.680;26.324;2023-05-10T12:15:10;8.37;;;5.93;;
9739;SDS011;4909;42.680;26.324;2023-05-10T12:17:38;10.20;;;6.27;;
9739;SDS011;4909;42.680;26.324;2023-05-10T12:20:18;9.80;;;6.03;;
9739;SDS011;4909;42.680;26.324;2023-05-10T12:22:47;10.57;;;6.07;;
9739;SDS011;4909;42.680;26.324;2023-05-10T12:25:18;9.73;;;6.07;;
9739;SDS011;4909;42.680;26.324;2023-05-10T12:27:48;10.87;;;6.47;;
9739;SDS011;4909;42.680;26.324;2023-05-10T12:30:20;16.40;;;6.93;;
9739;SDS011;4909;42.680;26.324;2023-05-10T12:32:48;11.17;;;6.07;;
9739;SDS011;4909;42.680;26.324;2023-05-10T12:35:15;9.90;;;5.70;;
9739;SDS011;4909;42.680;26.324;2023-05-10T12:37:45;10.33;;;5.73;;
9739;SDS011;4909;42.680;26.324;2023-05-10T12:40:12;8.93;;;5.40;;
9739;SDS011;4909;42.680;26.324;2023-05-10T12:42:40;10.53;;;5.30;;
9739;SDS011;4909;42.680;26.324;2023-05-10T12:45:10;11.73;;;5.83;;
9739;SDS011;4909;42.680;26.324;2023-05-10T12:47:37;10.93;;;5.80;;
9739;SDS011;4909;42.680;26.324;2023-05-10T12:50:05;10.67;;;5.63;;
9739;SDS011;4909;42.680;26.324;2023-05-10T12:52:32;9.77;;;5.10;;
9739;SDS011;4909;42.680;26.324;2023-05-10T12:54:59;10.60;;;5.37;;
9739;SDS011;4909;42.680;26.324;2023-05-10T12:57:26;8.57;;;4.80;;
9739;SDS011;4909;42.680;26.324;2023-05-10T12:59:54;12.40;;;5.50;;
9739;SDS011;4909;42.680;26.324;2023-05-10T13:02:21;9.90;;;4.73;;
9739;SDS011;4909;42.680;26.324;2023-05-10T13:04:48;12.83;;;5.30;;
9739;SDS011;4909;42.680;26.324;2023-05-10T13:07:15;9.20;;;4.37;;
9739;SDS011;4909;42.680;26.324;2023-05-10T13:09:42;9.87;;;4.83;;
9739;SDS011;4909;42.680;26.324;2023-05-10T13:12:09;13.33;;;5.43;;
9739;SDS011;4909;42.680;26.324;2023-05-10T13:14:36;10.13;;;4.97;;
9739;SDS011;4909;42.680;26.324;2023-05-10T13:17:04;9.67;;;4.60;;
9739;SDS011;4909;42.680;26.324;2023-05-10T13:19:31;11.13;;;5.07;;
9739;SDS011;4909;42.680;26.324;2023-05-10T13:21:57;12.67;;;5.53;;
9739;SDS011;4909;42.680;26.324;2023-05-10T13:24:24;11.97;;;5.17;;
9739;SDS011;4909;42.680;26.324;2023-05-10T13:26:51;10.63;;;4.87;;
9739;SDS011;4909;42.680;26.324;2023-05-10T13:29:18;13.90;;;5.17;;
9739;SDS011;4909;42.680;26.324;2023-05-10T13:31:46;9.50;;;4.70;;
9739;SDS011;4909;42.680;26.324;2023-05-10T13:34:14;11.30;;;4.73;;
9739;SDS011;4909;42.680;26.324;2023-05-10T13:36:40;16.17;;;6.17;;
9739;SDS011;4909;42.680;26.324;2023-05-10T13:39:07;11.87;;;5.57;;
9739;SDS011;4909;42.680;26.324;2023-05-10T13:41:34;9.80;;;4.87;;
9739;SDS011;4909;42.680;26.324;2023-05-10T13:44:01;12.30;;;5.13;;
9739;SDS011;4909;42.680;26.324;2023-05-10T13:46:28;7.80;;;4.13;;
9739;SDS011;4909;42.680;26.324;2023-05-10T13:48:55;10.60;;;5.07;;
9739;SDS011;4909;42.680;26.324;2023-05-10T13:51:24;12.33;;;4.93;;
9739;SDS011;4909;42.680;26.324;2023-05-10T13:53:51;11.30;;;4.77;;
9739;SDS011;4909;42.680;26.324;2023-05-10T13:59:05;11.80;;;5.03;;
9739;SDS011;4909;42.680;26.324;2023-05-10T14:01:33;12.93;;;5.43;;
9739;SDS011;4909;42.680;26.324;2023-05-10T14:04:00;11.10;;;5.40;;
9739;SDS011;4909;42.680;26.324;2023-05-10T14:06:28;14.53;;;6.07;;
9739;SDS011;4909;42.680;26.324;2023-05-10T14:08:55;17.63;;;6.63;;
9739;SDS011;4909;42.680;26.324;2023-05-10T14:11:22;11.13;;;5.47;;
9739;SDS011;4909;42.680;26.324;2023-05-10T14:13:49;9.80;;;4.73;;
9739;SDS011;4909;42.680;26.324;2023-05-10T14:16:16;11.07;;;5.20;;
9739;SDS011;4909;42.680;26.324;2023-05-10T14:18:43;12.57;;;5.63;;
9739;SDS011;4909;42.680;26.324;2023-05-10T14:21:09;13.10;;;5.67;;
9739;SDS011;4909;42.680;26.324;2023-05-10T14:23:38;15.30;;;6.23;;
9739;SDS011;4909;42.680;26.324;2023-05-10T14:26:04;12.80;;;5.37;;
9739;SDS011;4909;42.680;26.324;2023-05-10T14:28:31;9.97;;;4.97;;
9739;SDS011;4909;42.680;26.324;2023-05-10T14:30:58;12.97;;;6.17;;
9739;SDS011;4909;42.680;26.324;2023-05-10T14:33:25;9.97;;;5.33;;
9739;SDS011;4909;42.680;26.324;2023-05-10T14:35:52;15.03;;;6.53;;
9739;SDS011;4909;42.680;26.324;2023-05-10T14:38:21;11.77;;;5.50;;
9739;SDS011;4909;42.680;26.324;2023-05-10T14:40:50;9.57;;;5.57;;
9739;SDS011;4909;42.680;26.324;2023-05-10T14:43:16;8.83;;;5.20;;
9739;SDS011;4909;42.680;26.324;2023-05-10T14:45:43;12.10;;;5.80;;
9739;SDS011;4909;42.680;26.324;2023-05-10T14:48:10;13.13;;;6.10;;
9739;SDS011;4909;42.680;26.324;2023-05-10T14:50:40;10.73;;;5.13;;
9739;SDS011;4909;42.680;26.324;2023-05-10T14:56:03;10.53;;;5.17;;
9739;SDS011;4909;42.680;26.324;2023-05-10T14:58:30;8.83;;;4.97;;
9739;SDS011;4909;42.680;26.324;2023-05-10T15:00:57;7.23;;;4.33;;
9739;SDS011;4909;42.680;26.324;2023-05-10T15:03:23;12.70;;;5.53;;
9739;SDS011;4909;42.680;26.324;2023-05-10T15:05:50;9.43;;;5.10;;
9739;SDS011;4909;42.680;26.324;2023-05-10T15:08:18;11.27;;;5.23;;
9739;SDS011;4909;42.680;26.324;2023-05-10T15:10:45;9.10;;;4.87;;
9739;SDS011;4909;42.680;26.324;2023-05-10T15:13:13;12.67;;;5.90;;